createdAt,value
2023-01-28T00:00:51.150Z,6.07
2023-01-28T00:03:18.499Z,4.60
2023-01-28T00:05:45.963Z,4.53
2023-01-28T00:08:14.842Z,5.77
2023-01-28T00:10:43.181Z,8.00
2023-01-28T00:13:12.827Z,7.63
2023-01-28T00:15:40.156Z,3.67
2023-01-28T00:18:07.526Z,5.17
2023-01-28T00:20:35.413Z,6.53
2023-01-28T00:23:03.034Z,3.20
2023-01-28T00:25:30.637Z,6.23
2023-01-28T00:27:58.008Z,4.83
2023-01-28T00:30:25.386Z,4.43
2023-01-28T00:32:55.806Z,6.03
2023-01-28T00:35:23.274Z,4.77
2023-01-28T00:37:50.652Z,4.23
2023-01-28T00:40:18.144Z,4.20
2023-01-28T00:42:45.515Z,4.73
2023-01-28T00:45:13.376Z,9.07
2023-01-28T00:47:40.951Z,4.93
2023-01-28T00:50:08.526Z,10.50
2023-01-28T00:52:36.105Z,7.23
2023-01-28T00:55:03.574Z,11.00
2023-01-28T00:57:30.949Z,6.07
2023-01-28T00:59:58.290Z,3.83
2023-01-28T01:02:25.944Z,9.80
2023-01-28T01:04:59.428Z,4.10
2023-01-28T01:07:46.551Z,5.03
2023-01-28T01:10:15.244Z,4.53
2023-01-28T01:12:42.810Z,6.67
2023-01-28T01:15:11.011Z,6.70
2023-01-28T01:17:39.450Z,8.80
2023-01-28T01:20:09.173Z,4.20
2023-01-28T01:22:37.408Z,7.50
2023-01-28T01:25:05.501Z,6.87
2023-01-28T01:27:33.407Z,4.83
2023-01-28T01:30:00.785Z,7.80
2023-01-28T01:32:32.125Z,12.03
2023-01-28T01:34:59.853Z,8.23
2023-01-28T01:37:27.381Z,7.10
2023-01-28T01:39:54.828Z,6.97
2023-01-28T01:42:22.218Z,5.87
2023-01-28T01:44:59.976Z,7.17
2023-01-28T01:47:30.337Z,3.63
2023-01-28T01:49:58.004Z,8.03
2023-01-28T01:52:29.179Z,7.47
2023-01-28T01:54:58.915Z,7.73
2023-01-28T01:57:30.004Z,5.60
2023-01-28T02:00:06.007Z,8.47
2023-01-28T02:02:41.935Z,5.67
2023-01-28T02:05:10.416Z,4.03
2023-01-28T02:07:37.964Z,5.00
2023-01-28T02:10:06.262Z,7.77
2023-01-28T02:12:38.017Z,5.03
2023-01-28T02:15:07.963Z,8.80
2023-01-28T02:17:36.240Z,6.50
2023-01-28T02:20:05.621Z,10.10
2023-01-28T02:22:51.655Z,9.57
2023-01-28T02:25:34.927Z,9.57
2023-01-28T02:28:25.093Z,4.90
2023-01-28T02:30:55.524Z,6.70
2023-01-28T02:33:45.673Z,7.30
2023-01-28T02:36:17.677Z,5.17
2023-01-28T02:38:50.465Z,14.57
2023-01-28T02:41:21.800Z,5.20
2023-01-28T02:43:49.724Z,5.70
2023-01-28T02:46:46.443Z,6.13
2023-01-28T02:49:18.753Z,5.63
2023-01-28T02:51:58.158Z,5.27
2023-01-28T02:54:25.539Z,4.80
2023-01-28T02:56:57.987Z,5.30
2023-01-28T02:59:30.921Z,6.40
2023-01-28T03:02:15.082Z,7.10
2023-01-28T03:04:48.260Z,11.03
2023-01-28T03:07:18.295Z,6.33
2023-01-28T03:09:47.557Z,4.97
2023-01-28T03:12:42.999Z,4.70
2023-01-28T03:15:37.142Z,5.47
2023-01-28T03:18:26.799Z,7.57
2023-01-28T03:21:18.946Z,4.50
2023-01-28T03:24:24.988Z,7.17
2023-01-28T03:27:21.648Z,6.43
2023-01-28T03:30:16.142Z,5.90
2023-01-28T03:33:02.813Z,7.70
2023-01-28T03:35:50.476Z,3.80
2023-01-28T03:38:18.760Z,5.63
2023-01-28T03:41:00.498Z,8.40
2023-01-28T03:43:29.128Z,5.10
2023-01-28T03:45:56.649Z,5.87
2023-01-28T03:48:25.629Z,11.03
2023-01-28T03:50:55.283Z,4.50
2023-01-28T03:53:23.939Z,8.07
2023-01-28T03:55:53.358Z,7.13
2023-01-28T03:58:21.227Z,6.97
2023-01-28T04:00:48.643Z,7.10
2023-01-28T04:03:17.762Z,7.13
2023-01-28T04:06:01.153Z,6.07
2023-01-28T04:08:59.336Z,6.33
2023-01-28T04:11:39.385Z,4.17
2023-01-28T04:14:08.044Z,6.90
2023-01-28T04:16:55.747Z,6.47
2023-01-28T04:19:25.513Z,7.10
2023-01-28T04:21:54.320Z,13.07
2023-01-28T04:24:22.592Z,5.70
2023-01-28T04:26:50.326Z,10.93
2023-01-28T04:29:17.744Z,7.33
2023-01-28T04:31:45.187Z,7.10
2023-01-28T04:34:20.473Z,9.63
2023-01-28T04:37:07.971Z,6.50
2023-01-28T04:39:53.837Z,6.53
2023-01-28T04:42:28.652Z,6.77
2023-01-28T04:45:07.764Z,10.70
2023-01-28T04:47:53.527Z,6.67
2023-01-28T04:50:39.279Z,5.63
2023-01-28T04:53:26.932Z,6.30
2023-01-28T04:55:58.708Z,8.23
2023-01-28T04:58:27.758Z,8.67
2023-01-28T05:01:00.699Z,6.77
2023-01-28T05:03:28.326Z,7.67
2023-01-28T05:05:56.101Z,7.03
2023-01-28T05:08:45.966Z,9.40
2023-01-28T05:11:14.554Z,12.50
2023-01-28T05:13:42.366Z,6.03
2023-01-28T05:16:12.732Z,8.03
2023-01-28T05:18:40.296Z,5.20
2023-01-28T05:21:16.008Z,6.90
2023-01-28T05:23:44.627Z,9.33
2023-01-28T05:26:12.065Z,6.43
2023-01-28T05:28:39.415Z,11.10
2023-01-28T05:31:08.852Z,4.13
2023-01-28T05:33:36.242Z,5.30
2023-01-28T05:36:06.001Z,9.97
2023-01-28T05:38:33.517Z,9.20
2023-01-28T05:41:00.967Z,6.63
2023-01-28T05:43:28.787Z,4.63
2023-01-28T05:46:22.731Z,5.73
2023-01-28T05:49:16.717Z,7.63
2023-01-28T05:51:56.677Z,4.87
2023-01-28T05:54:24.879Z,5.23
2023-01-28T05:56:52.668Z,5.57
2023-01-28T05:59:20.117Z,8.90
2023-01-28T06:01:49.689Z,7.73
2023-01-28T06:04:18.931Z,5.93
2023-01-28T06:06:46.793Z,5.73
2023-01-28T06:09:14.342Z,7.97
2023-01-28T06:11:41.838Z,8.90
2023-01-28T06:14:09.291Z,10.00
2023-01-28T06:16:54.834Z,8.20
2023-01-28T06:19:27.385Z,6.07
2023-01-28T06:21:54.759Z,6.00
2023-01-28T06:24:22.305Z,16.03
2023-01-28T06:26:49.774Z,4.60
2023-01-28T06:29:17.177Z,15.63
2023-01-28T06:31:44.513Z,7.17
2023-01-28T06:34:11.933Z,8.93
2023-01-28T06:36:39.286Z,6.33
2023-01-28T06:39:06.676Z,12.03
2023-01-28T06:41:34.340Z,7.50
2023-01-28T06:44:02.192Z,8.80
2023-01-28T06:46:29.923Z,10.80
2023-01-28T06:48:57.368Z,8.73
2023-01-28T06:51:24.728Z,5.40
2023-01-28T06:53:52.123Z,8.17
2023-01-28T06:56:19.537Z,13.47
2023-01-28T06:58:46.907Z,12.50
2023-01-28T07:01:14.400Z,12.27
2023-01-28T07:03:41.835Z,6.33
2023-01-28T07:06:09.369Z,10.10
2023-01-28T07:08:37.914Z,12.87
2023-01-28T07:11:05.373Z,12.63
2023-01-28T07:13:32.952Z,7.67
2023-01-28T07:16:00.518Z,16.27
2023-01-28T07:18:27.946Z,11.00
2023-01-28T07:20:55.269Z,6.90
2023-01-28T07:23:23.040Z,7.93
2023-01-28T07:25:50.562Z,11.63
2023-01-28T07:28:24.006Z,8.03
2023-01-28T07:30:53.459Z,8.40
2023-01-28T07:33:21.499Z,6.80
2023-01-28T07:35:49.232Z,10.37
2023-01-28T07:38:16.586Z,9.57
2023-01-28T07:40:45.256Z,10.40
2023-01-28T07:43:12.692Z,10.50
2023-01-28T07:45:41.457Z,9.47
2023-01-28T07:48:10.862Z,8.53
2023-01-28T07:50:39.636Z,8.90
2023-01-28T07:53:08.087Z,10.50
2023-01-28T07:55:36.103Z,7.90
2023-01-28T07:58:04.766Z,6.17
2023-01-28T08:00:33.345Z,10.03
2023-01-28T08:03:01.848Z,12.53
2023-01-28T08:05:32.861Z,12.03
2023-01-28T08:08:00.438Z,9.33
2023-01-28T08:10:27.859Z,9.83
2023-01-28T08:12:56.236Z,10.87
2023-01-28T08:15:24.944Z,12.13
2023-01-28T08:17:55.574Z,9.63
2023-01-28T08:20:23.605Z,10.13
2023-01-28T08:22:50.978Z,12.50
2023-01-28T08:25:18.686Z,7.70
2023-01-28T08:27:46.230Z,15.10
2023-01-28T08:30:13.933Z,10.67
2023-01-28T08:32:41.774Z,12.60
2023-01-28T08:35:09.297Z,7.00
2023-01-28T08:37:36.764Z,7.57
2023-01-28T08:40:04.283Z,9.90
2023-01-28T08:42:31.765Z,11.37
2023-01-28T08:44:59.211Z,9.43
2023-01-28T08:47:26.606Z,13.17
2023-01-28T08:49:54.317Z,8.43
2023-01-28T08:52:21.699Z,15.90
2023-01-28T08:54:49.176Z,13.30
2023-01-28T08:57:16.564Z,9.67
2023-01-28T08:59:46.178Z,12.20
2023-01-28T09:02:30.277Z,10.33
2023-01-28T09:04:58.404Z,14.30
2023-01-28T09:07:25.797Z,19.37
2023-01-28T09:09:53.146Z,15.23
2023-01-28T09:12:20.494Z,8.40
2023-01-28T09:14:48.041Z,12.05
2023-01-28T09:17:15.351Z,10.13
2023-01-28T09:19:42.714Z,9.20
2023-01-28T09:22:10.168Z,12.97
2023-01-28T09:24:38.976Z,11.70
2023-01-28T09:27:06.689Z,11.27
2023-01-28T09:29:38.665Z,11.77
2023-01-28T09:32:07.314Z,18.80
2023-01-28T09:34:34.992Z,6.90
2023-01-28T09:37:02.433Z,7.23
2023-01-28T09:39:29.893Z,11.50
2023-01-28T09:42:15.695Z,10.00
2023-01-28T09:44:54.175Z,11.83
2023-01-28T09:47:24.619Z,9.53
2023-01-28T09:49:53.097Z,9.30
2023-01-28T09:52:22.559Z,8.70
2023-01-28T09:55:02.531Z,7.87
2023-01-28T09:57:41.844Z,6.03
2023-01-28T10:00:24.375Z,6.53
2023-01-28T10:03:08.905Z,8.30
2023-01-28T10:05:37.523Z,9.60
2023-01-28T10:08:11.540Z,6.37
2023-01-28T10:10:47.911Z,6.67
2023-01-28T10:13:27.836Z,10.93
2023-01-28T10:16:17.528Z,9.30
2023-01-28T10:19:03.837Z,8.73
2023-01-28T10:22:00.519Z,8.97
2023-01-28T10:24:40.443Z,5.80
2023-01-28T10:27:16.256Z,9.53
2023-01-28T10:29:46.489Z,7.97
2023-01-28T10:32:13.903Z,36.50
2023-01-28T10:34:41.441Z,63.23
2023-01-28T10:37:11.311Z,8.93
2023-01-28T10:39:38.782Z,10.83
2023-01-28T10:42:17.071Z,7.73
2023-01-28T10:44:45.375Z,11.57
2023-01-28T10:47:17.668Z,12.77
2023-01-28T10:49:48.584Z,11.43
2023-01-28T10:52:17.032Z,14.90
2023-01-28T10:54:44.761Z,10.33
2023-01-28T10:57:14.472Z,7.13
2023-01-28T10:59:42.897Z,9.07
2023-01-28T11:02:29.650Z,11.73
2023-01-28T11:05:06.379Z,9.97
2023-01-28T11:07:34.310Z,15.07
2023-01-28T11:10:02.418Z,9.50
2023-01-28T11:12:31.121Z,12.70
2023-01-28T11:14:58.658Z,12.60
2023-01-28T11:17:29.166Z,9.60
2023-01-28T11:19:59.172Z,8.77
2023-01-28T11:22:29.533Z,9.47
2023-01-28T11:24:56.946Z,8.33
2023-01-28T11:27:29.493Z,17.53
2023-01-28T11:30:02.081Z,9.63
2023-01-28T11:32:31.493Z,12.97
2023-01-28T11:35:02.114Z,7.63
2023-01-28T11:37:29.658Z,9.63
2023-01-28T11:40:21.668Z,15.90
2023-01-28T11:42:51.033Z,12.37
2023-01-28T11:45:19.677Z,10.37
2023-01-28T11:48:03.238Z,9.43
2023-01-28T11:50:35.800Z,10.83
2023-01-28T11:53:09.112Z,10.43
2023-01-28T11:55:50.727Z,8.17
2023-01-28T11:58:23.979Z,12.20
2023-01-28T12:00:57.186Z,7.47
2023-01-28T12:03:25.090Z,8.20
2023-01-28T12:05:54.091Z,13.33
2023-01-28T12:08:30.458Z,13.77
2023-01-28T12:10:57.806Z,14.43
2023-01-28T12:13:37.405Z,11.23
2023-01-28T12:16:20.131Z,10.10
2023-01-28T12:19:05.887Z,15.00
2023-01-28T12:21:40.230Z,11.47
2023-01-28T12:24:16.256Z,10.57
2023-01-28T12:26:43.668Z,12.90
2023-01-28T12:29:20.280Z,9.10
2023-01-28T12:32:03.016Z,23.00
2023-01-28T12:34:52.203Z,8.57
2023-01-28T12:37:41.986Z,13.07
2023-01-28T12:40:18.668Z,9.83
2023-01-28T12:42:49.093Z,13.60
2023-01-28T12:45:25.710Z,8.80
2023-01-28T12:47:59.764Z,14.53
2023-01-28T12:50:37.836Z,11.07
2023-01-28T12:53:27.820Z,10.33
2023-01-28T12:55:59.039Z,10.53
2023-01-28T12:58:44.688Z,7.93
2023-01-28T13:01:14.750Z,11.00
2023-01-28T13:03:51.575Z,12.03
2023-01-28T13:06:28.390Z,10.77
2023-01-28T13:08:59.094Z,10.80
2023-01-28T13:11:31.328Z,13.63
2023-01-28T13:13:58.667Z,12.17
2023-01-28T13:16:36.687Z,14.63
2023-01-28T13:19:08.901Z,11.17
2023-01-28T13:21:47.754Z,13.23
2023-01-28T13:24:16.400Z,15.77
2023-01-28T13:26:45.210Z,17.43
2023-01-28T13:29:15.323Z,15.80
2023-01-28T13:31:44.308Z,12.87
2023-01-28T13:34:34.623Z,11.57
2023-01-28T13:37:16.117Z,11.67
2023-01-28T13:39:48.022Z,17.23
2023-01-28T13:42:20.435Z,17.00
2023-01-28T13:44:48.064Z,14.90
2023-01-28T13:47:21.763Z,14.50
2023-01-28T13:49:50.968Z,19.20
2023-01-28T13:52:21.510Z,15.20
2023-01-28T13:54:52.659Z,15.43
2023-01-28T13:57:22.958Z,19.80
2023-01-28T13:59:50.511Z,20.27
2023-01-28T14:02:17.786Z,17.63
2023-01-28T14:04:54.311Z,15.23
2023-01-28T14:07:27.235Z,12.07
2023-01-28T14:10:07.111Z,13.30
2023-01-28T14:13:00.915Z,17.27
2023-01-28T14:15:28.563Z,13.60
2023-01-28T14:17:57.546Z,15.57
2023-01-28T14:20:31.602Z,20.67
2023-01-28T14:23:02.047Z,21.57
2023-01-28T14:25:44.526Z,16.73
2023-01-28T14:28:16.072Z,31.17
2023-01-28T14:31:06.879Z,15.70
2023-01-28T14:33:34.456Z,13.43
2023-01-28T14:36:01.892Z,22.13
2023-01-28T14:38:29.334Z,19.27
2023-01-28T14:40:59.712Z,17.97
2023-01-28T14:43:27.869Z,17.43
2023-01-28T14:46:05.660Z,16.00
2023-01-28T14:48:55.872Z,18.00
2023-01-28T14:51:23.319Z,12.87
2023-01-28T14:54:09.629Z,15.60
2023-01-28T14:56:53.174Z,21.07
2023-01-28T14:59:40.847Z,13.47
2023-01-28T15:02:18.307Z,16.83
2023-01-28T15:04:45.732Z,15.43
2023-01-28T15:07:17.765Z,13.27
2023-01-28T15:09:45.550Z,15.40
2023-01-28T15:12:13.714Z,16.53
2023-01-28T15:14:41.520Z,13.33
2023-01-28T15:17:30.105Z,15.80
2023-01-28T15:19:58.584Z,16.67
2023-01-28T15:22:28.304Z,13.63
2023-01-28T15:24:56.180Z,13.83
2023-01-28T15:27:27.402Z,15.23
2023-01-28T15:29:56.104Z,18.17
2023-01-28T15:32:28.694Z,23.67
2023-01-28T15:34:56.299Z,17.03
2023-01-28T15:37:24.277Z,20.93
2023-01-28T15:40:15.135Z,23.57
2023-01-28T15:42:42.851Z,26.83
2023-01-28T15:45:20.881Z,23.47
2023-01-28T15:47:50.045Z,20.17
2023-01-28T15:50:25.968Z,17.13
2023-01-28T15:52:55.557Z,18.17
2023-01-28T15:55:42.823Z,22.43
2023-01-28T15:58:13.344Z,21.40
2023-01-28T16:00:40.748Z,19.27
2023-01-28T16:03:09.919Z,23.03
2023-01-28T16:05:37.301Z,21.93
2023-01-28T16:08:09.039Z,21.33
2023-01-28T16:10:36.679Z,23.33
2023-01-28T16:13:12.792Z,25.70
2023-01-28T16:15:45.857Z,24.27
2023-01-28T16:18:39.731Z,32.43
2023-01-28T16:21:10.495Z,19.57
2023-01-28T16:23:39.595Z,29.43
2023-01-28T16:26:23.748Z,17.63
2023-01-28T16:28:51.463Z,24.33
2023-01-28T16:31:19.775Z,27.97
2023-01-28T16:33:47.431Z,27.97
2023-01-28T16:36:16.227Z,24.90
2023-01-28T16:38:43.833Z,18.63
2023-01-28T16:41:33.420Z,18.90
2023-01-28T16:44:05.511Z,28.50
2023-01-28T16:46:33.928Z,25.33
2023-01-28T16:49:01.453Z,23.63
2023-01-28T16:51:29.115Z,26.87
2023-01-28T16:53:56.831Z,25.07
2023-01-28T16:56:51.794Z,25.23
2023-01-28T16:59:14.851Z,25.80
2023-01-28T17:01:42.752Z,27.13
2023-01-28T17:04:12.704Z,29.03
2023-01-28T17:06:45.359Z,26.20
2023-01-28T17:09:14.496Z,25.80
2023-01-28T17:11:42.183Z,29.67
2023-01-28T17:14:10.771Z,26.70
2023-01-28T17:16:38.689Z,27.83
2023-01-28T17:19:06.284Z,33.97
2023-01-28T17:21:33.645Z,32.53
2023-01-28T17:24:01.614Z,30.27
2023-01-28T17:26:29.370Z,32.63
2023-01-28T17:28:57.140Z,43.90
2023-01-28T17:31:26.336Z,32.97
2023-01-28T17:33:55.266Z,36.27
2023-01-28T17:36:23.447Z,38.07
2023-01-28T17:38:51.063Z,37.07
2023-01-28T17:41:18.766Z,31.77
2023-01-28T17:43:53.271Z,33.23
2023-01-28T17:46:21.448Z,37.87
2023-01-28T17:48:48.914Z,35.80
2023-01-28T17:51:19.880Z,41.50
2023-01-28T17:53:52.282Z,39.73
2023-01-28T17:56:22.619Z,42.43
2023-01-28T17:58:51.092Z,38.10
2023-01-28T18:01:18.608Z,47.00
2023-01-28T18:03:46.102Z,42.77
2023-01-28T18:06:13.852Z,42.77
2023-01-28T18:08:41.298Z,40.40
2023-01-28T18:11:09.669Z,34.20
2023-01-28T18:13:40.301Z,34.03
2023-01-28T18:16:11.685Z,36.60
2023-01-28T18:18:39.504Z,35.13
2023-01-28T18:21:07.511Z,34.67
2023-01-28T18:23:35.231Z,40.40
2023-01-28T18:26:08.036Z,36.20
2023-01-28T18:28:38.908Z,38.50
2023-01-28T18:31:06.905Z,32.40
2023-01-28T18:33:34.844Z,39.87
2023-01-28T18:36:02.328Z,40.83
2023-01-28T18:38:29.798Z,32.23
2023-01-28T18:40:57.176Z,34.53
2023-01-28T18:43:24.606Z,33.37
2023-01-28T18:45:52.430Z,30.63
2023-01-28T18:48:20.063Z,37.87
2023-01-28T18:50:54.274Z,32.70
2023-01-28T18:53:22.589Z,35.73
2023-01-28T18:55:50.309Z,35.63
2023-01-28T18:58:27.900Z,39.33
2023-01-28T19:00:56.663Z,36.50
2023-01-28T19:03:24.182Z,36.17
2023-01-28T19:05:51.830Z,38.30
2023-01-28T19:08:19.254Z,42.53
2023-01-28T19:10:54.829Z,36.17
2023-01-28T19:13:22.259Z,40.83
2023-01-28T19:15:49.666Z,45.30
2023-01-28T19:18:17.137Z,43.27
2023-01-28T19:20:44.648Z,40.80
2023-01-28T19:23:12.475Z,43.63
2023-01-28T19:25:40.708Z,40.90
2023-01-28T19:28:08.555Z,34.93
2023-01-28T19:30:37.281Z,38.87
2023-01-28T19:33:10.051Z,43.03
2023-01-28T19:35:39.467Z,43.60
2023-01-28T19:38:09.372Z,42.20
2023-01-28T19:40:40.315Z,39.13
2023-01-28T19:43:07.743Z,35.30
2023-01-28T19:45:35.255Z,41.63
2023-01-28T19:48:02.602Z,40.93
2023-01-28T19:50:30.799Z,46.37
2023-01-28T19:52:58.097Z,38.53
2023-01-28T19:55:25.466Z,42.93
2023-01-28T19:57:52.905Z,38.17
2023-01-28T20:00:20.638Z,40.10
2023-01-28T20:02:51.314Z,41.50
2023-01-28T20:05:18.684Z,36.60
2023-01-28T20:07:46.583Z,44.20
2023-01-28T20:10:13.942Z,42.40
2023-01-28T20:12:41.287Z,39.33
2023-01-28T20:15:08.991Z,41.17
2023-01-28T20:17:36.445Z,37.77
2023-01-28T20:20:05.435Z,48.30
2023-01-28T20:22:33.777Z,42.10
2023-01-28T20:25:01.118Z,39.83
2023-01-28T20:27:28.486Z,40.73
2023-01-28T20:29:55.824Z,49.60
2023-01-28T20:32:23.280Z,44.13
2023-01-28T20:34:52.011Z,43.00
2023-01-28T20:37:19.789Z,44.13
2023-01-28T20:39:47.084Z,38.43
2023-01-28T20:42:14.479Z,39.40
2023-01-28T20:44:41.832Z,41.07
2023-01-28T20:47:09.266Z,43.60
2023-01-28T20:49:36.580Z,47.73
2023-01-28T20:52:04.390Z,42.97
2023-01-28T20:54:32.198Z,42.70
2023-01-28T20:56:59.571Z,41.83
2023-01-28T20:59:27.520Z,40.07
2023-01-28T21:01:54.876Z,41.57
2023-01-28T21:04:22.276Z,40.67
2023-01-28T21:06:49.870Z,41.30
2023-01-28T21:09:17.351Z,44.40
2023-01-28T21:11:44.659Z,48.57
2023-01-28T21:14:16.733Z,46.90
2023-01-28T21:16:44.737Z,38.93
2023-01-28T21:19:12.187Z,38.83
2023-01-28T21:21:42.602Z,41.83
2023-01-28T21:24:11.452Z,40.87
2023-01-28T21:26:39.057Z,43.20
2023-01-28T21:29:06.457Z,41.47
2023-01-28T21:31:33.820Z,41.30
2023-01-28T21:34:01.655Z,39.00
2023-01-28T21:36:33.539Z,51.90
2023-01-28T21:39:01.728Z,48.20
2023-01-28T21:41:29.106Z,45.60
2023-01-28T21:43:57.657Z,42.70
2023-01-28T21:46:26.077Z,42.27
2023-01-28T21:48:57.524Z,43.03
2023-01-28T21:51:45.924Z,46.77
2023-01-28T21:54:17.120Z,49.20
2023-01-28T21:56:45.163Z,49.77
2023-01-28T21:59:28.421Z,46.00
2023-01-28T22:01:56.084Z,44.40
2023-01-28T22:04:24.546Z,39.57
2023-01-28T22:06:53.446Z,41.60
2023-01-28T22:09:20.741Z,39.50
2023-01-28T22:11:48.278Z,43.87
2023-01-28T22:14:15.822Z,41.77
2023-01-28T22:16:43.588Z,40.83
2023-01-28T22:19:11.295Z,47.70
2023-01-28T22:21:42.045Z,40.47
2023-01-28T22:24:09.673Z,43.03
2023-01-28T22:26:37.115Z,45.53
2023-01-28T22:29:05.324Z,45.30
2023-01-28T22:31:33.107Z,44.03
2023-01-28T22:34:00.534Z,47.30
2023-01-28T22:36:27.920Z,43.93
2023-01-28T22:38:55.354Z,47.27
2023-01-28T22:41:23.752Z,48.47
2023-01-28T22:43:51.894Z,47.00
2023-01-28T22:46:20.289Z,47.53
2023-01-28T22:48:48.445Z,54.67
2023-01-28T22:51:15.983Z,47.97
2023-01-28T22:53:43.693Z,51.40
2023-01-28T22:56:11.491Z,42.50
2023-01-28T22:58:39.169Z,47.93
2023-01-28T23:01:07.113Z,43.50
2023-01-28T23:03:34.755Z,47.43
2023-01-28T23:06:05.512Z,44.27
2023-01-28T23:08:34.295Z,47.20
2023-01-28T23:11:02.842Z,49.37
2023-01-28T23:13:53.796Z,43.63
2023-01-28T23:16:40.335Z,45.10
2023-01-28T23:19:27.453Z,45.43
2023-01-28T23:22:13.689Z,48.13
2023-01-28T23:24:41.285Z,47.20
2023-01-28T23:27:09.222Z,46.27
2023-01-28T23:29:36.562Z,43.23
2023-01-28T23:32:05.192Z,47.47
2023-01-28T23:34:34.461Z,52.20
2023-01-28T23:37:02.859Z,54.60
2023-01-28T23:39:30.340Z,48.87
2023-01-28T23:41:57.984Z,51.37
2023-01-28T23:44:25.913Z,44.13
2023-01-28T23:46:53.695Z,47.30
2023-01-28T23:49:21.181Z,48.30
2023-01-28T23:51:49.607Z,49.90
2023-01-28T23:54:17.805Z,48.53
2023-01-28T23:56:45.089Z,49.03
2023-01-28T23:59:12.629Z,50.77
